Terminal Aerodrome Forecast
Issued by NWS Jacksonville, FL

Home | Current Version | Previous Version | Text Only | Print | Product List | Glossary On
Versions: 1 2 3 4 5 6 7 8 9 10 11 12 13 14 15 16 17
000
FTUS42 KJAX 302332
TAFGNV
TAF
KGNV 302332Z 3100/3124 09007KT P6SM VCSH SCT050 SCT250
     FM310300 00000KT P6SM SCT025
     FM310800 00000KT 4SM BR FEW025
     FM311230 11005KT P6SM BKN030
     FM311700 12006KT P6SM VCSH BKN050
     FM312100 10007KT P6SM VCTS BKN050CB=

USA.gov is the U.S. government's official web portal to all federal, state and local government web resources and services.